< < Back
Terminal Aerodrome Forecast


Current Version              Previous Versions:   1  2  3  4  5  6  7  8  9  

Terminal Aerodrome Forecast

675
FTUS42 KMLB 071458 AAA
TAFMCO
TAF AMD
KMCO 071458Z 0715/0812 17005KT P6SM FEW030 FEW250
     FM071700 18006KT P6SM SCT030 SCT060
     FM072000 13008KT P6SM VCTS SCT040CB BKN060
      TEMPO 0721/0723 3SM TSRA BKN030CB
     FM080200 14003KT P6SM SCT050 SCT150 BKN250=



Latest METAR

111
SAUS70 KWBC 071458
MTRMCO
METAR KMCO 071453Z 17005KT 10SM FEW030 FEW250 29/24 A3018 RMK AO2 SLP219
T02940239 50001


USA.gov is the U.S. government's official web portal to all federal, state and local government web resources and services.